Time;durP1;ratioP1;P1;durP2;ratioP2;P2;SDS_P1;SDS_P2;PMS_P1;PMS_P2;Temp;Humidity;BMP_temperature;BMP_pressure;BME280_temperature;BME280_humidity;BME280_pressure;Samples;Min_cycle;Max_cycle;Signal;HPM_P1;HPM_P2
2021/11/19 00:01:45;;;;;;;1.90;0.68;;;;;;;;;;4982841;28;20043;-56
2021/11/19 00:04:12;;;;;;;4.60;0.90;;;;;;;;;;4978864;28;20042;-56
2021/11/19 00:06:37;;;;;;;2.45;0.77;;;;;;;;;;4980538;28;20062;-54
2021/11/19 00:09:05;;;;;;;2.25;0.80;;;;;;;;;;4984226;28;20034;-55
2021/11/19 00:11:34;;;;;;;2.90;0.80;;;;;;;;;;4981937;28;20080;-56
2021/11/19 00:14:00;;;;;;;5.20;0.82;;;;;;;;;;4982766;28;20026;-57
2021/11/19 00:16:27;;;;;;;5.75;0.75;;;;;;;;;;4982467;28;20038;-58
2021/11/19 00:18:56;;;;;;;1.63;0.60;;;;;;;;;;4983031;28;20042;-56
2021/11/19 00:21:23;;;;;;;1.92;0.68;;;;;;;;;;4981245;28;20078;-56
2021/11/19 00:23:50;;;;;;;3.15;0.80;;;;;;;;;;4981776;28;20104;-56
2021/11/19 00:26:17;;;;;;;2.58;0.70;;;;;;;;;;4983558;28;20807;-55
2021/11/19 00:28:44;;;;;;;3.10;0.80;;;;;;;;;;4980730;28;20502;-53
2021/11/19 00:31:10;;;;;;;2.80;0.90;;;;;;;;;;4983189;28;20124;-56
2021/11/19 00:33:36;;;;;;;2.42;0.77;;;;;;;;;;4980141;28;20088;-55
2021/11/19 00:36:03;;;;;;;4.45;0.85;;;;;;;;;;4983964;28;20043;-55
2021/11/19 00:38:29;;;;;;;9.65;0.98;;;;;;;;;;4979138;28;20175;-55
2021/11/19 00:40:56;;;;;;;2.30;0.80;;;;;;;;;;4981467;28;20577;-55
2021/11/19 00:43:23;;;;;;;4.75;0.80;;;;;;;;;;4981758;28;20212;-54
2021/11/19 00:45:49;;;;;;;2.60;0.75;;;;;;;;;;4978116;28;20671;-55
2021/11/19 00:48:15;;;;;;;3.63;0.98;;;;;;;;;;4979666;28;20065;-56
2021/11/19 00:50:43;;;;;;;2.13;0.90;;;;;;;;;;4982728;28;20034;-56
2021/11/19 00:53:09;;;;;;;2.63;0.80;;;;;;;;;;4977696;28;20114;-57
2021/11/19 00:55:35;;;;;;;5.80;1.10;;;;;;;;;;4977108;28;20141;-57
2021/11/19 00:58:02;;;;;;;3.30;1.08;;;;;;;;;;4979020;28;20089;-53
2021/11/19 01:00:30;;;;;;;2.10;0.70;;;;;;;;;;4979093;28;20643;-54
2021/11/19 01:02:56;;;;;;;7.55;1.05;;;;;;;;;;4981595;28;20058;-56
2021/11/19 01:05:22;;;;;;;7.85;1.05;;;;;;;;;;4979363;28;20045;-56
2021/11/19 01:07:48;;;;;;;2.50;0.95;;;;;;;;;;4966194;28;20046;-56
2021/11/19 01:10:19;;;;;;;4.50;0.95;;;;;;;;;;4983544;28;20406;-53
2021/11/19 01:12:45;;;;;;;2.78;0.88;;;;;;;;;;4980631;28;20445;-57
2021/11/19 01:15:17;;;;;;;3.53;0.68;;;;;;;;;;4982429;28;20039;-56
2021/11/19 01:17:49;;;;;;;3.30;0.73;;;;;;;;;;4982563;28;20058;-56
2021/11/19 01:20:22;;;;;;;6.43;1.13;;;;;;;;;;4983791;28;20398;-57
2021/11/19 01:22:49;;;;;;;2.97;0.85;;;;;;;;;;4981541;28;20074;-56
2021/11/19 01:25:17;;;;;;;3.75;1.02;;;;;;;;;;4979242;28;20074;-56
2021/11/19 01:27:43;;;;;;;1.45;0.55;;;;;;;;;;4980831;28;20047;-56
2021/11/19 01:30:11;;;;;;;1.73;0.60;;;;;;;;;;4982128;28;20050;-56
2021/11/19 01:32:37;;;;;;;2.65;1.00;;;;;;;;;;4984122;28;20042;-56
2021/11/19 01:35:04;;;;;;;4.78;0.93;;;;;;;;;;4986274;28;20046;-52
2021/11/19 01:37:29;;;;;;;5.75;1.10;;;;;;;;;;4988074;28;20534;-53
2021/11/19 01:39:55;;;;;;;2.53;0.60;;;;;;;;;;4986753;28;20053;-57
2021/11/19 01:42:21;;;;;;;4.15;1.02;;;;;;;;;;4984348;28;20037;-55
2021/11/19 01:45:06;;;;;;;6.88;1.23;;;;;;;;;;4983751;28;20506;-57
2021/11/19 01:47:32;;;;;;;3.45;1.13;;;;;;;;;;4983429;28;20046;-55
2021/11/19 01:49:59;;;;;;;3.22;0.80;;;;;;;;;;4983034;28;20309;-53
2021/11/19 01:52:31;;;;;;;2.60;0.77;;;;;;;;;;4981783;28;20073;-56
2021/11/19 01:54:59;;;;;;;5.95;1.23;;;;;;;;;;4982752;28;20042;-56
2021/11/19 01:57:34;;;;;;;2.25;0.77;;;;;;;;;;4983485;28;20093;-56
2021/11/19 02:00:15;;;;;;;2.45;0.70;;;;;;;;;;4983565;28;20042;-55
2021/11/19 02:02:43;;;;;;;4.32;0.98;;;;;;;;;;4981114;28;20038;-55
2021/11/19 02:05:09;;;;;;;3.03;0.90;;;;;;;;;;4983742;28;20057;-57
2021/11/19 02:07:45;;;;;;;2.30;0.70;;;;;;;;;;4983752;28;20046;-57
2021/11/19 02:10:23;;;;;;;3.75;1.15;;;;;;;;;;4984419;28;20129;-56
2021/11/19 02:13:01;;;;;;;2.75;0.90;;;;;;;;;;4981290;28;20963;-57
2021/11/19 02:15:31;;;;;;;2.22;0.88;;;;;;;;;;4981462;28;20042;-55
2021/11/19 02:18:04;;;;;;;3.30;1.00;;;;;;;;;;4982271;28;20355;-55
2021/11/19 02:20:32;;;;;;;8.65;0.95;;;;;;;;;;4982789;28;20030;-53
2021/11/19 02:23:00;;;;;;;11.88;1.35;;;;;;;;;;4982581;28;20034;-55
2021/11/19 02:25:31;;;;;;;2.88;0.90;;;;;;;;;;4981639;28;20584;-55
2021/11/19 02:27:59;;;;;;;4.47;1.33;;;;;;;;;;4983229;28;20076;-56
2021/11/19 02:30:28;;;;;;;11.52;1.40;;;;;;;;;;4981957;28;20046;-56
2021/11/19 02:33:00;;;;;;;3.67;1.30;;;;;;;;;;4982180;28;20042;-55
2021/11/19 02:35:28;;;;;;;4.82;1.40;;;;;;;;;;4983676;28;20178;-54
2021/11/19 02:37:57;;;;;;;9.35;2.17;;;;;;;;;;4984562;28;20042;-55
2021/11/19 02:40:30;;;;;;;4.95;1.25;;;;;;;;;;4982262;28;20149;-53
2021/11/19 02:43:16;;;;;;;4.15;1.42;;;;;;;;;;4983560;28;20089;-57
2021/11/19 02:45:45;;;;;;;5.15;1.10;;;;;;;;;;4980716;28;20150;-56
2021/11/19 02:48:12;;;;;;;7.70;1.13;;;;;;;;;;4981637;28;20144;-56
2021/11/19 02:50:38;;;;;;;3.20;1.13;;;;;;;;;;4983045;28;20643;-55
2021/11/19 02:53:05;;;;;;;3.28;1.15;;;;;;;;;;4981773;28;20071;-54
2021/11/19 02:55:33;;;;;;;6.15;1.35;;;;;;;;;;4982251;28;20125;-55
2021/11/19 02:57:59;;;;;;;3.95;1.30;;;;;;;;;;4984469;28;20045;-56
2021/11/19 03:00:30;;;;;;;5.22;1.10;;;;;;;;;;4984325;28;20053;-54
2021/11/19 03:02:56;;;;;;;3.17;1.10;;;;;;;;;;4983497;28;20056;-56
2021/11/19 03:05:24;;;;;;;3.25;0.80;;;;;;;;;;4982013;28;20042;-54
2021/11/19 03:07:50;;;;;;;4.65;1.00;;;;;;;;;;4981739;28;20132;-56
2021/11/19 03:10:21;;;;;;;2.70;0.95;;;;;;;;;;4983239;28;20094;-57
2021/11/19 03:12:47;;;;;;;3.13;1.00;;;;;;;;;;4979434;28;20050;-56
2021/11/19 03:15:17;;;;;;;2.80;0.95;;;;;;;;;;4980516;28;20180;-56
2021/11/19 03:17:43;;;;;;;3.25;1.02;;;;;;;;;;4981405;28;21970;-57
2021/11/19 03:20:10;;;;;;;2.05;0.77;;;;;;;;;;4980423;28;20042;-58
2021/11/19 03:22:36;;;;;;;3.15;1.20;;;;;;;;;;4980925;28;21069;-58
2021/11/19 03:25:02;;;;;;;3.72;1.20;;;;;;;;;;4982655;28;20054;-55
2021/11/19 03:27:29;;;;;;;3.25;1.05;;;;;;;;;;4979560;28;20233;-55
2021/11/19 03:29:55;;;;;;;2.95;1.10;;;;;;;;;;4982179;28;20588;-56
2021/11/19 03:32:22;;;;;;;3.05;1.00;;;;;;;;;;4983692;28;20058;-53
2021/11/19 03:34:48;;;;;;;5.55;1.30;;;;;;;;;;4982577;28;20049;-57
2021/11/19 03:37:15;;;;;;;2.30;1.00;;;;;;;;;;4980291;28;20041;-57
2021/11/19 03:39:42;;;;;;;3.08;0.90;;;;;;;;;;4980993;28;20387;-56
2021/11/19 03:42:10;;;;;;;3.67;1.00;;;;;;;;;;4979518;28;20066;-56
2021/11/19 03:44:44;;;;;;;2.70;0.88;;;;;;;;;;4980400;28;20149;-55
2021/11/19 03:47:15;;;;;;;4.78;1.15;;;;;;;;;;4976193;28;20046;-56
2021/11/19 03:49:42;;;;;;;13.02;1.65;;;;;;;;;;4969278;28;20065;-57
2021/11/19 03:52:13;;;;;;;3.42;0.95;;;;;;;;;;4982255;28;20089;-56
2021/11/19 03:54:41;;;;;;;2.63;0.90;;;;;;;;;;4983294;28;20807;-57
2021/11/19 03:57:09;;;;;;;1.92;0.60;;;;;;;;;;4982419;28;20071;-55
2021/11/19 03:59:35;;;;;;;3.58;0.82;;;;;;;;;;4979134;28;20482;-57
2021/11/19 04:02:01;;;;;;;2.30;0.90;;;;;;;;;;4963455;28;20057;-56
2021/11/19 04:04:28;;;;;;;2.25;0.70;;;;;;;;;;4981439;28;20034;-55
2021/11/19 04:06:57;;;;;;;2.20;0.70;;;;;;;;;;4981435;28;20050;-55
2021/11/19 04:09:23;;;;;;;2.60;0.80;;;;;;;;;;4979644;28;20040;-57
2021/11/19 04:11:49;;;;;;;2.35;0.85;;;;;;;;;;4980072;28;20132;-57
2021/11/19 04:14:15;;;;;;;4.30;0.93;;;;;;;;;;4981601;28;20041;-53
2021/11/19 04:16:50;;;;;;;1.95;0.63;;;;;;;;;;4982766;28;20038;-56
2021/11/19 04:19:17;;;;;;;3.60;1.08;;;;;;;;;;4981361;28;20041;-54
2021/11/19 04:21:44;;;;;;;5.22;1.02;;;;;;;;;;4979992;28;20042;-57
2021/11/19 04:24:12;;;;;;;2.53;0.85;;;;;;;;;;4982473;28;20085;-54
2021/11/19 04:26:37;;;;;;;2.50;0.70;;;;;;;;;;4981756;28;20064;-58
2021/11/19 04:29:05;;;;;;;2.88;0.90;;;;;;;;;;4980063;28;20026;-56
2021/11/19 04:31:32;;;;;;;3.83;0.90;;;;;;;;;;4980696;28;20041;-56
2021/11/19 04:33:58;;;;;;;2.13;0.73;;;;;;;;;;4981939;28;20116;-54
2021/11/19 04:36:24;;;;;;;2.85;0.93;;;;;;;;;;4977719;28;20043;-54
2021/11/19 04:38:50;;;;;;;5.00;0.90;;;;;;;;;;4982426;28;20049;-57
2021/11/19 04:41:16;;;;;;;3.42;1.10;;;;;;;;;;4979316;28;20128;-54
2021/11/19 04:43:42;;;;;;;2.22;0.80;;;;;;;;;;4980182;28;20494;-55
2021/11/19 04:46:09;;;;;;;3.00;1.10;;;;;;;;;;4981608;28;20132;-57
2021/11/19 04:48:35;;;;;;;9.95;1.17;;;;;;;;;;4978477;28;20563;-57
2021/11/19 04:51:03;;;;;;;2.65;0.80;;;;;;;;;;4980908;28;20046;-53
2021/11/19 04:53:29;;;;;;;3.85;0.80;;;;;;;;;;4979658;28;20055;-55
2021/11/19 04:55:56;;;;;;;2.50;0.80;;;;;;;;;;4979612;28;20454;-56
2021/11/19 04:58:22;;;;;;;9.32;0.98;;;;;;;;;;4979957;28;20045;-55
2021/11/19 05:00:53;;;;;;;2.30;0.80;;;;;;;;;;4981202;28;20134;-57
2021/11/19 05:03:19;;;;;;;3.72;1.00;;;;;;;;;;4980678;28;20507;-56
2021/11/19 05:05:46;;;;;;;2.38;0.80;;;;;;;;;;4980151;28;20046;-57
2021/11/19 05:08:12;;;;;;;4.50;1.00;;;;;;;;;;4982699;28;20047;-56
2021/11/19 05:10:39;;;;;;;6.28;1.20;;;;;;;;;;4983696;28;20043;-57
2021/11/19 05:13:05;;;;;;;3.65;1.00;;;;;;;;;;4983824;28;20127;-56
2021/11/19 05:15:31;;;;;;;4.97;1.10;;;;;;;;;;4984839;28;20052;-57
2021/11/19 05:17:57;;;;;;;2.47;0.80;;;;;;;;;;4984054;28;20495;-56
2021/11/19 05:20:24;;;;;;;2.85;0.90;;;;;;;;;;4983783;28;20092;-57
2021/11/19 05:22:50;;;;;;;2.70;0.95;;;;;;;;;;4965367;28;20050;-56
2021/11/19 05:25:23;;;;;;;2.47;0.90;;;;;;;;;;4986447;28;21948;-55
2021/11/19 05:27:49;;;;;;;3.47;1.00;;;;;;;;;;4986181;28;20046;-56
2021/11/19 05:30:15;;;;;;;6.57;1.10;;;;;;;;;;4985574;28;20053;-54
2021/11/19 05:32:41;;;;;;;2.78;0.80;;;;;;;;;;4982527;28;20046;-54
2021/11/19 05:35:08;;;;;;;7.78;1.35;;;;;;;;;;4983999;28;20807;-54
2021/11/19 05:37:35;;;;;;;1.52;0.65;;;;;;;;;;4985374;28;20050;-52
2021/11/19 05:40:01;;;;;;;4.75;1.20;;;;;;;;;;4984131;28;20107;-56
2021/11/19 05:42:27;;;;;;;3.67;1.00;;;;;;;;;;4985262;28;20542;-56
2021/11/19 05:44:54;;;;;;;2.17;0.77;;;;;;;;;;4988148;28;20089;-56
2021/11/19 05:47:20;;;;;;;4.50;1.17;;;;;;;;;;4985599;28;21791;-54
2021/11/19 05:49:46;;;;;;;3.72;0.90;;;;;;;;;;4986754;28;20133;-55
2021/11/19 05:52:12;;;;;;;3.80;1.27;;;;;;;;;;4984843;28;20047;-54
2021/11/19 05:54:39;;;;;;;4.43;1.65;;;;;;;;;;4984659;28;20097;-56
2021/11/19 05:57:06;;;;;;;5.85;1.40;;;;;;;;;;4983981;28;20047;-55
2021/11/19 05:59:32;;;;;;;4.45;1.23;;;;;;;;;;4983623;28;20038;-57
2021/11/19 06:01:58;;;;;;;3.17;1.15;;;;;;;;;;4984085;28;20054;-55
2021/11/19 06:04:24;;;;;;;3.15;0.80;;;;;;;;;;4983377;28;20043;-57
2021/11/19 06:06:50;;;;;;;3.50;1.10;;;;;;;;;;4982732;28;20131;-55
2021/11/19 06:09:20;;;;;;;4.22;1.30;;;;;;;;;;4984021;28;20061;-56
2021/11/19 06:11:50;;;;;;;2.17;0.90;;;;;;;;;;4984126;28;20117;-55
2021/11/19 06:14:19;;;;;;;6.65;1.27;;;;;;;;;;4965978;28;20069;-54
2021/11/19 06:16:48;;;;;;;3.72;1.27;;;;;;;;;;4984837;28;20034;-55
2021/11/19 06:19:18;;;;;;;4.75;1.30;;;;;;;;;;4981965;28;20043;-56
2021/11/19 06:21:46;;;;;;;3.58;1.20;;;;;;;;;;4982222;28;20553;-56
2021/11/19 06:24:14;;;;;;;3.55;1.35;;;;;;;;;;4983463;28;20038;-56
2021/11/19 06:26:41;;;;;;;2.97;1.25;;;;;;;;;;4980343;28;20099;-55
2021/11/19 06:29:08;;;;;;;4.05;1.73;;;;;;;;;;4982953;28;20526;-56
2021/11/19 06:31:35;;;;;;;4.22;1.48;;;;;;;;;;4982446;28;20137;-56
2021/11/19 06:34:01;;;;;;;3.40;1.00;;;;;;;;;;4984535;28;20046;-55
2021/11/19 06:36:28;;;;;;;2.55;1.05;;;;;;;;;;4982717;28;20084;-56
2021/11/19 06:38:54;;;;;;;3.40;1.33;;;;;;;;;;4982572;28;20042;-57
2021/11/19 06:41:21;;;;;;;2.60;0.95;;;;;;;;;;4984554;28;20041;-56
2021/11/19 06:43:47;;;;;;;0.77;0.50;;;;;;;;;;4983765;28;20433;-55
2021/11/19 06:46:15;;;;;;;3.15;1.10;;;;;;;;;;4966934;28;20053;-57
2021/11/19 06:48:41;;;;;;;2.38;0.75;;;;;;;;;;4983200;28;20062;-54
2021/11/19 06:51:07;;;;;;;3.15;1.27;;;;;;;;;;4985216;28;20049;-57
2021/11/19 06:53:35;;;;;;;2.95;1.00;;;;;;;;;;4982200;28;20614;-56
2021/11/19 06:56:01;;;;;;;2.97;0.90;;;;;;;;;;4982019;28;20122;-53
2021/11/19 06:58:27;;;;;;;3.05;0.98;;;;;;;;;;4983609;28;20094;-53
2021/11/19 07:00:54;;;;;;;2.97;1.10;;;;;;;;;;4983373;28;20147;-55
2021/11/19 07:03:20;;;;;;;2.70;0.95;;;;;;;;;;4975623;28;20049;-55
2021/11/19 07:05:46;;;;;;;10.02;1.25;;;;;;;;;;4985458;28;20159;-53
2021/11/19 07:08:12;;;;;;;3.75;1.35;;;;;;;;;;4986737;28;20503;-55
2021/11/19 07:10:39;;;;;;;4.53;1.02;;;;;;;;;;4955648;28;20042;-57
2021/11/19 07:13:06;;;;;;;4.38;1.08;;;;;;;;;;4982157;28;20057;-57
2021/11/19 07:15:32;;;;;;;4.25;1.10;;;;;;;;;;4984887;28;20046;-54
2021/11/19 07:17:58;;;;;;;4.10;1.40;;;;;;;;;;4984751;28;20544;-57
2021/11/19 07:20:25;;;;;;;3.80;1.17;;;;;;;;;;4985994;28;20038;-55
2021/11/19 07:22:51;;;;;;;5.70;1.20;;;;;;;;;;4985191;28;20409;-54
2021/11/19 07:25:18;;;;;;;4.55;1.45;;;;;;;;;;4986890;28;20054;-56
2021/11/19 07:27:46;;;;;;;3.65;1.20;;;;;;;;;;4983612;28;20510;-55
2021/11/19 07:30:14;;;;;;;3.13;1.00;;;;;;;;;;4984748;28;20046;-56
2021/11/19 07:32:40;;;;;;;3.13;1.08;;;;;;;;;;4982762;28;20038;-54
2021/11/19 07:35:06;;;;;;;2.85;1.15;;;;;;;;;;4984741;28;20084;-57
2021/11/19 07:37:35;;;;;;;4.95;0.88;;;;;;;;;;4984503;28;20471;-56
2021/11/19 07:40:01;;;;;;;3.60;1.20;;;;;;;;;;4984831;28;20053;-55
2021/11/19 07:42:27;;;;;;;6.50;1.48;;;;;;;;;;4982379;28;20887;-56
2021/11/19 07:44:53;;;;;;;2.97;1.00;;;;;;;;;;4983804;28;20046;-56
2021/11/19 07:47:19;;;;;;;3.92;1.25;;;;;;;;;;4984472;28;20141;-57
2021/11/19 07:49:45;;;;;;;3.35;1.05;;;;;;;;;;4983760;28;20049;-55
2021/11/19 07:52:11;;;;;;;2.53;1.00;;;;;;;;;;4968359;28;20041;-57
2021/11/19 07:54:37;;;;;;;2.15;0.77;;;;;;;;;;4981049;28;20092;-57
2021/11/19 07:57:04;;;;;;;5.18;1.35;;;;;;;;;;4982740;28;20129;-55
2021/11/19 07:59:31;;;;;;;3.65;1.10;;;;;;;;;;4965426;28;21920;-56
2021/11/19 08:01:59;;;;;;;4.22;1.20;;;;;;;;;;4982349;28;20141;-54
2021/11/19 08:04:26;;;;;;;7.72;1.00;;;;;;;;;;4980818;28;20053;-52
2021/11/19 08:06:52;;;;;;;3.50;1.40;;;;;;;;;;4982522;28;20057;-56
2021/11/19 08:09:19;;;;;;;3.00;1.10;;;;;;;;;;4981818;28;20034;-54
2021/11/19 08:11:45;;;;;;;5.60;1.33;;;;;;;;;;4978808;28;20096;-55
2021/11/19 08:14:11;;;;;;;3.08;1.00;;;;;;;;;;4982517;28;20045;-54
2021/11/19 08:16:39;;;;;;;2.67;1.10;;;;;;;;;;4982445;28;20047;-55
2021/11/19 08:19:06;;;;;;;3.63;1.30;;;;;;;;;;4981417;28;20162;-53
2021/11/19 08:21:32;;;;;;;3.28;1.25;;;;;;;;;;4981203;28;20423;-52
2021/11/19 08:24:03;;;;;;;3.65;1.50;;;;;;;;;;4980852;28;20038;-56
2021/11/19 08:26:31;;;;;;;3.67;1.20;;;;;;;;;;4981191;28;20038;-53
2021/11/19 08:28:57;;;;;;;4.07;1.35;;;;;;;;;;4954369;28;20046;-53
2021/11/19 08:31:24;;;;;;;7.82;1.35;;;;;;;;;;4979127;28;20140;-57
2021/11/19 08:33:51;;;;;;;3.40;1.13;;;;;;;;;;4982473;28;20066;-57
2021/11/19 08:36:18;;;;;;;5.35;1.38;;;;;;;;;;4981540;28;20081;-57
2021/11/19 08:38:44;;;;;;;7.38;1.42;;;;;;;;;;4979523;28;20125;-56
2021/11/19 08:41:12;;;;;;;4.00;1.40;;;;;;;;;;4983224;28;20044;-56
2021/11/19 08:43:39;;;;;;;3.28;1.10;;;;;;;;;;4966403;28;20484;-52
2021/11/19 08:46:07;;;;;;;4.55;1.40;;;;;;;;;;4982168;28;20077;-53
2021/11/19 08:48:34;;;;;;;4.15;1.38;;;;;;;;;;4982735;28;20179;-57
2021/11/19 08:51:01;;;;;;;4.80;1.48;;;;;;;;;;4980586;28;20136;-56
2021/11/19 08:53:27;;;;;;;5.30;1.70;;;;;;;;;;4979999;28;20148;-54
2021/11/19 08:55:55;;;;;;;4.45;1.67;;;;;;;;;;4980133;28;20096;-54
2021/11/19 08:58:22;;;;;;;3.58;1.25;;;;;;;;;;4979956;28;20152;-55
2021/11/19 09:00:50;;;;;;;6.68;1.48;;;;;;;;;;4981784;28;20094;-57
2021/11/19 09:03:16;;;;;;;3.95;1.52;;;;;;;;;;4978220;28;20097;-55
2021/11/19 09:05:43;;;;;;;2.75;1.20;;;;;;;;;;4983102;28;20061;-55
2021/11/19 09:08:12;;;;;;;4.03;1.45;;;;;;;;;;4967825;28;20089;-58
2021/11/19 09:10:39;;;;;;;3.83;1.40;;;;;;;;;;4983716;28;20071;-52
2021/11/19 09:13:05;;;;;;;3.40;1.42;;;;;;;;;;4941829;28;20038;-55
2021/11/19 09:15:32;;;;;;;6.43;1.25;;;;;;;;;;4982647;28;20042;-55
2021/11/19 09:18:10;;;;;;;3.92;1.50;;;;;;;;;;4983261;28;20081;-51
2021/11/19 09:20:54;;;;;;;5.40;1.67;;;;;;;;;;4982337;28;20089;-57
2021/11/19 09:23:22;;;;;;;2.88;1.10;;;;;;;;;;4982051;28;20041;-55
2021/11/19 09:25:49;;;;;;;6.32;1.40;;;;;;;;;;4983724;28;20049;-53
2021/11/19 09:28:16;;;;;;;5.07;1.30;;;;;;;;;;4983903;28;20065;-52
2021/11/19 09:30:44;;;;;;;7.47;1.63;;;;;;;;;;4982241;28;20112;-53
2021/11/19 09:33:11;;;;;;;7.80;1.58;;;;;;;;;;4980513;28;20030;-55
2021/11/19 09:35:38;;;;;;;3.72;1.55;;;;;;;;;;4983315;28;20042;-56
2021/11/19 09:38:05;;;;;;;4.70;1.35;;;;;;;;;;4983380;28;20030;-56
2021/11/19 09:40:33;;;;;;;9.27;1.50;;;;;;;;;;4982232;28;20042;-56
2021/11/19 09:43:11;;;;;;;4.32;1.55;;;;;;;;;;4983549;28;22343;-56
2021/11/19 09:45:43;;;;;;;3.78;1.27;;;;;;;;;;4984510;28;20038;-52
2021/11/19 09:48:21;;;;;;;5.30;1.50;;;;;;;;;;4982522;28;20130;-56
2021/11/19 09:50:53;;;;;;;4.38;1.45;;;;;;;;;;4981887;28;20085;-53
2021/11/19 09:53:19;;;;;;;5.07;1.60;;;;;;;;;;4982726;28;20482;-56
2021/11/19 09:56:10;;;;;;;3.42;1.30;;;;;;;;;;4979941;28;20034;-54
2021/11/19 09:58:35;;;;;;;5.50;1.67;;;;;;;;;;4984879;28;20957;-54
2021/11/19 10:01:20;;;;;;;4.68;1.45;;;;;;;;;;4984316;28;20092;-55
2021/11/19 10:03:51;;;;;;;6.50;1.30;;;;;;;;;;4984850;28;20120;-56
2021/11/19 10:06:33;;;;;;;3.97;1.48;;;;;;;;;;4969323;28;20042;-57
2021/11/19 10:09:14;;;;;;;4.40;1.50;;;;;;;;;;4983336;28;20064;-56
2021/11/19 10:11:42;;;;;;;3.97;1.58;;;;;;;;;;4984088;28;20565;-55
2021/11/19 10:14:08;;;;;;;3.55;1.45;;;;;;;;;;4987639;28;21193;-55
2021/11/19 10:16:36;;;;;;;3.90;1.30;;;;;;;;;;4985825;28;20070;-55
2021/11/19 10:19:08;;;;;;;4.63;1.55;;;;;;;;;;4985215;28;20037;-53
2021/11/19 10:21:39;;;;;;;6.88;1.10;;;;;;;;;;4984395;28;20076;-56
2021/11/19 10:24:23;;;;;;;7.20;1.70;;;;;;;;;;4985809;28;20730;-56
2021/11/19 10:26:49;;;;;;;5.13;1.60;;;;;;;;;;4983313;28;20046;-57
2021/11/19 10:29:41;;;;;;;4.10;1.35;;;;;;;;;;4983047;28;20042;-54
2021/11/19 10:32:07;;;;;;;5.25;1.40;;;;;;;;;;4979722;28;20056;-55
2021/11/19 10:34:37;;;;;;;4.07;1.42;;;;;;;;;;4982543;28;20053;-56
2021/11/19 10:37:22;;;;;;;3.20;1.25;;;;;;;;;;4985553;28;20161;-57
2021/11/19 10:39:59;;;;;;;3.60;1.50;;;;;;;;;;4984735;28;20160;-55
2021/11/19 10:42:43;;;;;;;3.35;1.20;;;;;;;;;;4983140;28;20118;-57
2021/11/19 10:45:35;;;;;;;3.05;1.20;;;;;;;;;;4985432;28;20061;-55
2021/11/19 10:48:09;;;;;;;3.30;1.50;;;;;;;;;;4951171;28;20104;-55
2021/11/19 10:51:01;;;;;;;2.50;1.00;;;;;;;;;;4984030;28;20133;-57
2021/11/19 10:53:45;;;;;;;2.92;1.08;;;;;;;;;;4983288;28;20097;-55
2021/11/19 10:56:14;;;;;;;5.90;1.60;;;;;;;;;;4983466;28;20789;-56
2021/11/19 10:58:58;;;;;;;4.78;1.77;;;;;;;;;;4983472;28;20149;-54
2021/11/19 11:01:24;;;;;;;3.70;1.27;;;;;;;;;;4980110;28;20504;-54
2021/11/19 11:04:00;;;;;;;4.43;1.40;;;;;;;;;;4986448;28;20034;-52
2021/11/19 11:06:39;;;;;;;3.83;1.58;;;;;;;;;;4982686;28;20046;-54
2021/11/19 11:09:34;;;;;;;6.20;1.67;;;;;;;;;;4982680;28;20184;-56
2021/11/19 11:12:08;;;;;;;3.40;1.50;;;;;;;;;;4957010;28;20038;-54
2021/11/19 11:14:36;;;;;;;4.05;1.45;;;;;;;;;;4983860;28;20046;-53
2021/11/19 11:17:17;;;;;;;5.18;1.70;;;;;;;;;;4984800;28;20061;-55
2021/11/19 11:19:45;;;;;;;5.78;1.50;;;;;;;;;;4985647;28;20056;-54
2021/11/19 11:22:14;;;;;;;3.97;1.40;;;;;;;;;;4985403;28;20057;-54
2021/11/19 11:24:51;;;;;;;5.00;1.73;;;;;;;;;;4982684;28;20042;-53
2021/11/19 11:27:35;;;;;;;3.28;1.20;;;;;;;;;;4967498;28;20056;-56
2021/11/19 11:30:08;;;;;;;3.55;1.40;;;;;;;;;;4984026;28;20094;-55
2021/11/19 11:32:43;;;;;;;2.60;1.05;;;;;;;;;;4984433;28;20060;-51
2021/11/19 11:35:14;;;;;;;5.57;1.70;;;;;;;;;;4984106;28;20042;-54
2021/11/19 11:37:53;;;;;;;4.18;1.58;;;;;;;;;;4983049;28;20600;-55
2021/11/19 11:40:24;;;;;;;7.90;1.77;;;;;;;;;;4982995;28;20043;-56
2021/11/19 11:43:10;;;;;;;4.13;1.33;;;;;;;;;;4983958;28;20042;-55
2021/11/19 11:46:05;;;;;;;3.63;1.50;;;;;;;;;;4983799;28;20039;-57
2021/11/19 11:49:10;;;;;;;4.68;1.85;;;;;;;;;;4961625;28;20060;-57
2021/11/19 11:51:45;;;;;;;3.70;1.60;;;;;;;;;;4890629;29;20079;-56
2021/11/19 11:54:29;;;;;;;5.43;1.60;;;;;;;;;;4891495;29;20040;-56
2021/11/19 11:57:30;;;;;;;3.75;1.27;;;;;;;;;;4949712;28;20042;-56
2021/11/19 11:59:56;;;;;;;3.40;1.45;;;;;;;;;;4917738;29;20121;-56
2021/11/19 12:02:31;;;;;;;9.50;2.08;;;;;;;;;;4967459;28;20129;-56
2021/11/19 12:05:06;;;;;;;4.88;1.55;;;;;;;;;;4983776;28;20619;-53
2021/11/19 12:07:38;;;;;;;4.32;1.40;;;;;;;;;;4984304;28;20046;-55
2021/11/19 12:10:12;;;;;;;2.67;1.10;;;;;;;;;;4984294;28;20664;-55
2021/11/19 12:12:44;;;;;;;5.13;1.50;;;;;;;;;;4981566;28;20038;-54
2021/11/19 12:15:25;;;;;;;3.88;1.50;;;;;;;;;;4982799;28;20045;-51
2021/11/19 12:18:09;;;;;;;6.28;1.33;;;;;;;;;;4982883;28;21053;-53
2021/11/19 12:20:59;;;;;;;6.28;1.52;;;;;;;;;;4982244;28;20042;-54
2021/11/19 12:23:35;;;;;;;4.25;1.60;;;;;;;;;;4983416;28;20054;-54
2021/11/19 12:26:16;;;;;;;6.60;1.58;;;;;;;;;;4982984;28;20046;-56
2021/11/19 12:28:43;;;;;;;3.03;1.20;;;;;;;;;;4982657;28;20044;-53
2021/11/19 12:31:31;;;;;;;6.07;1.48;;;;;;;;;;4982203;28;20050;-52
2021/11/19 12:34:16;;;;;;;4.53;1.88;;;;;;;;;;4983469;28;20529;-54
2021/11/19 12:36:49;;;;;;;5.93;1.80;;;;;;;;;;4979910;28;20042;-53
2021/11/19 12:39:15;;;;;;;3.05;1.27;;;;;;;;;;4982588;28;20058;-52
2021/11/19 12:41:47;;;;;;;6.65;1.83;;;;;;;;;;4965678;28;20042;-52
2021/11/19 12:44:12;;;;;;;3.05;1.15;;;;;;;;;;4982707;28;20060;-52
2021/11/19 12:46:58;;;;;;;4.97;1.42;;;;;;;;;;4981639;28;20078;-53
2021/11/19 12:49:47;;;;;;;5.63;1.48;;;;;;;;;;4981247;28;20045;-52
2021/11/19 12:52:22;;;;;;;6.00;1.33;;;;;;;;;;4982989;28;20500;-52
2021/11/19 12:55:08;;;;;;;5.93;1.67;;;;;;;;;;4981524;28;20467;-52
2021/11/19 12:57:42;;;;;;;5.47;1.70;;;;;;;;;;4929407;28;20050;-51
2021/11/19 13:00:10;;;;;;;3.88;1.58;;;;;;;;;;4981310;28;20035;-53
2021/11/19 13:02:39;;;;;;;4.97;1.50;;;;;;;;;;4979872;28;20054;-53
2021/11/19 13:05:04;;;;;;;4.38;1.48;;;;;;;;;;4979204;28;20041;-53
2021/11/19 13:07:50;;;;;;;4.07;1.75;;;;;;;;;;4980428;28;20062;-54
2021/11/19 13:10:16;;;;;;;3.75;1.52;;;;;;;;;;4981650;28;21864;-53
2021/11/19 13:13:03;;;;;;;3.22;1.40;;;;;;;;;;4981361;28;20142;-54
2021/11/19 13:15:32;;;;;;;4.72;1.35;;;;;;;;;;4980310;28;20056;-55
2021/11/19 13:18:20;;;;;;;5.22;1.50;;;;;;;;;;4981530;28;20047;-53
2021/11/19 13:20:46;;;;;;;4.53;1.23;;;;;;;;;;4977897;28;20495;-54
2021/11/19 13:23:31;;;;;;;11.70;1.73;;;;;;;;;;4981722;28;20081;-56
2021/11/19 13:25:58;;;;;;;5.82;2.10;;;;;;;;;;4979644;28;20045;-56
2021/11/19 13:28:43;;;;;;;3.95;1.50;;;;;;;;;;4980745;28;20053;-53
2021/11/19 13:31:29;;;;;;;8.50;1.83;;;;;;;;;;4985275;28;20042;-56
2021/11/19 13:34:01;;;;;;;5.22;1.95;;;;;;;;;;4985205;28;20034;-51
2021/11/19 13:36:33;;;;;;;8.85;2.85;;;;;;;;;;4982912;28;20042;-55
2021/11/19 13:39:05;;;;;;;8.57;3.08;;;;;;;;;;4985482;28;20038;-57
2021/11/19 13:41:30;;;;;;;6.22;2.25;;;;;;;;;;4984798;28;20137;-55
2021/11/19 13:43:56;;;;;;;12.00;1.92;;;;;;;;;;4985198;28;20132;-55
2021/11/19 13:46:37;;;;;;;4.18;1.48;;;;;;;;;;4986629;28;20221;-52
2021/11/19 13:49:17;;;;;;;5.13;1.55;;;;;;;;;;4985339;28;20050;-55
2021/11/19 13:51:49;;;;;;;6.43;1.60;;;;;;;;;;4982570;28;20050;-53
2021/11/19 13:54:15;;;;;;;4.53;1.95;;;;;;;;;;4985407;28;20042;-56
2021/11/19 13:56:41;;;;;;;3.65;1.30;;;;;;;;;;4986902;28;20038;-55
2021/11/19 13:59:17;;;;;;;3.70;1.38;;;;;;;;;;4990555;28;20089;-56
2021/11/19 14:01:46;;;;;;;3.90;2.03;;;;;;;;;;4984085;28;20542;-52
2021/11/19 14:04:32;;;;;;;3.60;1.50;;;;;;;;;;4986296;28;20656;-56
2021/11/19 14:07:04;;;;;;;4.10;1.63;;;;;;;;;;4983494;28;20066;-56
2021/11/19 14:09:47;;;;;;;4.18;2.00;;;;;;;;;;4983873;28;20045;-54
2021/11/19 14:12:15;;;;;;;4.53;1.67;;;;;;;;;;4985597;28;20042;-56
2021/11/19 14:14:41;;;;;;;6.10;1.83;;;;;;;;;;4985941;28;20752;-55
2021/11/19 14:17:11;;;;;;;4.70;1.92;;;;;;;;;;4984585;28;20039;-57
2021/11/19 14:22:23;;;;;;;4.97;1.75;;;;;;;;;;4986348;28;20062;-56
2021/11/19 14:24:51;;;;;;;9.15;1.98;;;;;;;;;;4982355;28;20045;-56
2021/11/19 14:27:21;;;;;;;4.88;1.98;;;;;;;;;;4985205;28;20050;-56
2021/11/19 14:29:51;;;;;;;3.05;1.40;;;;;;;;;;4986184;28;20455;-58
2021/11/19 14:32:37;;;;;;;5.97;1.65;;;;;;;;;;4985019;28;20053;-56
2021/11/19 14:35:23;;;;;;;6.22;1.77;;;;;;;;;;4982911;28;20057;-57
2021/11/19 14:37:50;;;;;;;6.30;1.95;;;;;;;;;;4966604;28;20082;-54
2021/11/19 14:40:21;;;;;;;3.97;1.70;;;;;;;;;;4980835;28;20073;-56
2021/11/19 14:42:47;;;;;;;6.97;2.28;;;;;;;;;;4983431;28;20101;-57
2021/11/19 14:45:34;;;;;;;6.85;2.00;;;;;;;;;;4982540;28;20502;-55
2021/11/19 14:48:05;;;;;;;5.97;2.08;;;;;;;;;;4982629;28;20324;-57
2021/11/19 14:53:22;;;;;;;4.75;1.75;;;;;;;;;;4984564;28;20041;-58
2021/11/19 14:55:48;;;;;;;8.95;1.88;;;;;;;;;;4982959;28;20041;-56
2021/11/19 14:58:14;;;;;;;3.03;1.27;;;;;;;;;;4983990;28;20046;-54
2021/11/19 15:00:48;;;;;;;6.60;2.00;;;;;;;;;;4983376;28;20487;-56
2021/11/19 15:03:18;;;;;;;3.80;1.67;;;;;;;;;;4984813;28;20058;-57
2021/11/19 15:05:46;;;;;;;6.05;2.08;;;;;;;;;;4981547;28;20070;-55
2021/11/19 15:08:18;;;;;;;3.25;1.40;;;;;;;;;;4969583;28;20065;-54